Date,TemperatureHighF,TemperatureAvgF,TemperatureLowF,DewpointHighF,DewpointAvgF,DewpointLowF,HumidityHigh,HumidityAvg,HumidityLow,PressureMaxIn,PressureMinIn,WindSpeedMaxMPH,WindSpeedAvgMPH,GustSpeedMaxMPH,PrecipitationSumIn
2014-1-1,53.3,44.4,35.2,48.0,41.3,33.0,94,89,79,30.23,30.15,7,2,9,0.00
2014-1-2,61.5,47.7,39.4,49.0,42.6,37.0,94,83,55,30.19,30.07,6,2,8,0.00
2014-1-3,60.4,48.9,40.7,51.0,44.1,38.0,94,84,60,30.09,29.97,7,2,9,0.00
2014-1-4,54.1,45.5,38.0,49.0,42.5,37.0,94,89,70,30.09,29.99,5,1,10,0.01
2014-1-5,62.1,46.0,35.3,45.0,34.6,23.0,91,68,30,30.22,30.09,8,3,11,0.00
2014-1-6,64.4,47.0,38.9,41.0,35.4,30.0,83,66,28,30.27,30.17,8,3,13,0.00
2014-1-7,58.1,47.1,39.8,47.0,40.3,35.0,94,78,46,30.23,30.15,6,2,9,0.00
2014-1-8,60.2,49.9,44.5,54.0,47.6,44.0,96,92,78,30.25,30.17,6,1,8,0.00
2014-1-9,58.1,47.6,43.6,55.0,45.6,43.0,97,93,75,30.30,30.21,5,1,8,0.00
2014-1-10,54.0,46.7,41.6,52.0,45.2,40.0,97,94,86,30.29,30.20,7,1,8,0.00
2014-1-11,57.6,49.3,43.4,56.0,48.1,43.0,98,95,84,30.31,30.17,5,0,8,0.00
2014-1-12,62.5,48.8,39.3,48.0,43.0,38.0,96,82,49,30.44,30.31,7,0,14,0.00
2014-1-13,62.0,48.8,39.3,47.0,41.4,37.0,92,78,45,30.47,30.37,6,3,12,0.00
2014-1-14,61.6,48.5,37.2,51.0,41.6,33.0,92,78,53,30.47,30.32,9,3,11,0.00
2014-1-15,72.8,51.3,41.0,48.0,36.9,31.0,78,60,29,30.35,30.20,8,3,10,0.00
2014-1-16,72.9,52.1,39.3,41.0,34.3,29.0,78,55,22,30.23,30.13,8,4,10,0.00
2014-1-17,71.3,51.1,39.2,46.0,36.0,30.0,75,59,24,30.17,30.11,10,4,12,0.00
2014-1-18,64.9,49.0,38.0,47.0,37.2,31.0,77,65,43,30.18,30.08,10,3,11,0.00
2014-1-19,63.4,47.8,37.8,50.0,38.5,31.0,80,71,38,30.14,30.07,8,4,11,0.00
2014-1-20,63.0,49.3,37.9,44.0,37.1,32.0,80,65,38,30.25,30.11,8,3,11,0.00
2014-1-21,62.6,47.8,35.3,51.0,39.4,31.0,84,73,55,30.29,30.18,8,2,12,0.00
2014-1-22,62.6,49.1,40.0,50.0,39.7,31.0,89,71,46,30.19,29.93,6,2,11,0.00
2014-1-23,64.3,49.2,39.3,51.0,40.8,35.0,89,74,41,30.01,29.88,7,2,8,0.00
2014-1-24,60.8,52.9,43.9,53.0,46.2,35.0,88,78,67,30.29,30.01,13,2,18,0.00
2014-1-25,63.2,53.2,45.2,51.0,43.4,38.0,85,70,57,30.28,30.12,8,3,15,0.00
2014-1-26,63.2,49.9,43.3,50.0,43.5,39.0,95,80,51,30.14,30.05,7,2,10,0.00
2014-1-27,52.8,47.6,41.3,50.0,45.1,39.0,94,91,84,30.21,30.08,5,1,7,0.00
2014-1-28,57.3,53.4,49.8,56.0,51.4,48.0,97,93,86,30.27,30.19,3,0,7,0.00
2014-1-29,54.4,52.3,49.5,54.0,51.8,49.0,98,98,97,30.21,30.02,2,0,5,0.00
2014-1-30,57.3,50.0,45.2,52.0,47.4,43.0,98,91,75,30.02,29.87,8,1,11,0.00
2014-1-31,59.4,47.2,39.3,42.0,39.8,37.0,93,77,50,30.14,29.96,7,1,9,0.00
2014-2-1,54.5,45.4,37.4,44.0,39.1,33.0,90,79,63,30.18,30.03,9,2,13,0.00
2014-2-2,48.7,44.6,40.9,44.0,41.0,38.0,94,87,74,30.04,29.82,14,3,25,0.00
2014-2-3,56.4,43.7,32.8,46.0,37.6,32.0,96,81,55,30.12,30.02,7,1,11,0.00
2014-2-4,54.6,43.9,37.0,42.0,36.7,34.0,90,77,54,30.20,30.11,4,0,8,0.00
2014-2-5,48.4,41.6,32.6,43.0,38.5,31.0,95,89,69,30.20,30.03,7,1,15,0.00
2014-2-6,51.1,46.9,43.7,50.0,45.6,43.0,97,95,91,30.03,29.88,11,2,18,0.00
2014-2-7,53.1,50.2,47.4,53.0,49.7,47.0,98,98,97,30.04,29.93,11,3,16,0.00
2014-2-8,54.2,53.7,52.9,54.0,53.4,52.0,99,98,98,30.12,29.98,7,1,12,6.00
2014-2-9,55.2,54.0,52.9,55.0,53.8,53.0,99,99,99,30.12,30.02,10,2,14,1.65
2014-2-10,59.2,52.1,48.0,57.0,51.4,47.0,99,97,88,30.30,30.10,6,1,8,0.01
2014-2-11,53.8,48.4,43.8,52.0,47.6,43.0,98,97,92,30.27,30.19,5,1,9,0.01
2014-2-12,53.0,49.3,45.4,52.0,48.6,45.0,98,97,93,30.29,30.20,6,1,7,0.06
2014-2-13,59.0,53.7,51.0,59.0,53.1,51.0,99,98,94,30.25,30.11,3,0,7,0.04
2014-2-14,58.8,54.6,52.2,58.0,53.9,52.0,99,97,93,30.20,30.05,5,0,6,0.12
2014-2-15,54.8,53.3,49.7,54.0,52.8,49.0,98,98,96,30.06,29.96,12,2,14,0.14
2014-2-16,59.3,48.9,42.0,53.0,45.9,40.0,98,90,71,30.24,30.07,7,2,10,0.01
2014-2-17,61.2,48.4,37.1,52.0,44.2,36.0,95,86,68,30.23,30.11,5,1,10,0.00
2014-2-18,61.5,51.1,44.3,54.0,48.6,43.0,96,91,75,30.22,30.12,8,1,10,0.10
2014-2-19,63.1,51.2,43.6,53.0,45.2,40.0,97,82,53,30.25,30.10,7,1,9,0.02
2014-2-20,63.2,51.4,43.9,49.0,43.5,38.0,89,75,57,30.25,30.13,5,1,8,0.00
2014-2-21,66.0,50.7,41.6,52.0,45.4,40.0,94,83,57,30.14,30.01,7,2,9,0.00
2014-2-22,56.6,48.2,41.6,51.0,45.5,40.0,95,90,81,30.04,29.94,10,1,10,0.00
2014-2-23,56.8,45.3,38.7,51.0,43.6,37.0,97,94,79,30.06,29.98,5,2,8,0.01
2014-2-24,64.8,49.9,39.7,50.0,44.4,38.0,94,83,56,30.02,29.93,6,2,9,0.00
2014-2-25,55.0,49.9,42.7,50.0,46.9,41.0,96,90,80,29.98,29.91,14,3,17,0.00
2014-2-26,54.7,53.1,51.4,54.0,51.4,48.0,97,94,88,29.95,29.62,14,4,28,0.96
2014-2-27,58.8,54.5,51.7,55.0,51.2,48.0,97,89,72,29.87,29.47,12,4,17,0.02
2014-2-28,58.5,53.4,50.8,56.0,50.7,46.0,96,91,63,29.47,29.31,16,3,31,0.84
2014-3-1,70.9,57.1,51.2,53.0,49.9,48.0,96,79,50,29.83,29.46,11,2,22,0.23
2014-3-2,56.0,53.7,52.6,55.0,52.7,52.0,97,97,95,30.14,29.82,7,1,10,0.11
2014-3-3,54.6,53.3,51.6,54.0,52.5,51.0,97,97,96,30.13,29.99,7,2,17,2.04
2014-3-4,58.1,54.6,51.7,55.0,53.1,50.0,97,94,88,30.11,30.04,11,2,16,0.02
2014-3-5,59.6,55.6,53.8,57.0,54.6,53.0,97,96,86,30.11,29.97,7,2,14,0.44
2014-3-6,58.0,53.3,47.3,56.0,52.3,46.0,97,96,93,30.23,30.05,6,1,9,0.01
2014-3-7,63.4,51.8,43.1,55.0,48.6,42.0,96,89,74,30.23,30.11,8,2,9,0.00
2014-3-8,60.8,51.7,43.2,54.0,48.4,42.0,95,88,71,30.22,30.12,6,1,9,0.02
2014-3-9,59.9,55.2,51.6,58.0,53.3,50.0,96,93,87,30.20,30.09,8,2,12,0.06
2014-3-10,64.7,54.4,48.1,55.0,49.2,44.0,97,84,58,30.28,30.12,11,1,11,0.13
2014-3-11,65.4,55.1,45.1,51.0,42.4,25.0,86,65,24,30.27,30.05,6,1,9,0.00
2014-3-12,74.5,56.3,44.9,49.0,38.6,28.0,83,55,18,30.15,30.05,8,2,13,0.00
2014-3-13,65.0,51.5,41.1,54.0,45.2,36.0,92,79,67,30.08,29.99,12,2,15,0.00
2014-3-14,67.9,54.1,45.3,55.0,48.8,44.0,95,83,57,30.25,30.07,7,1,10,0.00
2014-3-15,63.3,53.0,45.1,54.0,48.6,43.0,93,85,70,30.33,30.23,6,1,10,0.00
2014-3-16,61.4,50.7,42.5,53.0,46.6,41.0,95,86,73,30.34,30.22,7,2,9,0.00
2014-3-17,63.8,53.4,45.9,49.0,45.2,42.0,94,75,54,30.25,30.02,6,1,9,0.01
2014-3-18,63.5,51.9,42.7,50.0,43.7,38.0,88,75,55,30.02,29.92,8,1,8,0.00
2014-3-19,63.9,49.9,38.7,52.0,42.7,36.0,89,77,56,30.10,29.97,7,2,11,0.00
2014-3-20,60.2,50.5,42.8,49.0,44.3,39.0,92,80,66,30.07,29.95,7,2,9,0.00
2014-3-21,58.5,46.7,40.1,49.0,43.5,39.0,95,89,69,30.03,29.94,6,2,10,0.00
2014-3-22,54.6,46.6,38.7,49.0,43.3,36.0,94,88,79,30.12,29.99,6,2,9,0.00
2014-3-23,52.7,44.9,37.4,49.0,43.0,36.0,96,93,84,30.22,30.11,6,2,9,0.01
2014-3-24,55.0,45.9,38.4,50.0,43.7,37.0,95,92,82,30.18,30.05,7,2,10,0.01
2014-3-25,55.7,48.2,38.7,54.0,46.9,37.0,97,95,88,30.07,29.85,6,2,13,0.41
2014-3-26,56.7,51.4,48.0,54.0,50.0,47.0,97,95,88,29.95,29.77,9,2,15,0.40
2014-3-27,56.1,52.2,49.2,53.0,50.2,48.0,97,93,85,30.12,29.95,7,1,11,0.12
2014-3-28,54.7,53.7,52.4,54.0,52.9,51.0,97,97,95,30.16,30.07,10,4,19,0.16
2014-3-29,54.2,51.7,47.3,54.0,51.0,47.0,98,97,94,30.09,30.02,11,2,12,0.51
2014-3-30,55.7,48.4,41.1,50.0,45.5,40.0,98,90,73,30.15,30.06,8,2,11,0.01
2014-3-31,54.5,47.8,44.8,48.0,45.4,43.0,96,91,76,30.06,29.82,14,2,22,0.69
2014-4-1,51.4,45.1,41.7,49.0,43.7,41.0,97,95,86,29.89,29.80,9,2,23,0.42
2014-4-2,54.8,46.5,38.7,49.0,43.5,38.0,98,90,68,30.12,29.87,7,2,10,0.01
2014-4-3,56.5,47.7,39.7,50.0,44.7,39.0,97,90,77,30.12,30.04,11,3,15,0.01
2014-4-4,59.8,51.0,45.7,54.0,48.5,44.0,97,91,76,30.10,29.98,8,2,13,0.17
2014-4-5,63.0,51.9,41.4,53.0,47.1,40.0,96,85,63,30.24,30.09,6,1,9,0.01
2014-4-6,69.4,56.8,47.3,58.0,51.6,46.0,95,83,65,30.25,30.13,7,1,10,0.00
2014-4-7,65.9,57.0,50.0,58.0,52.5,49.0,95,85,72,30.18,30.08,5,1,10,0.00
2014-4-8,59.7,53.6,48.6,55.0,50.5,46.0,95,89,82,30.13,30.04,5,1,6,0.00
2014-4-9,52.6,48.2,45.1,51.0,47.2,44.0,97,96,93,30.11,30.02,6,1,9,0.00
2014-4-10,53.6,47.6,42.9,52.0,46.8,42.0,98,97,93,30.06,29.92,7,1,7,0.00
2014-4-11,50.8,48.7,46.1,50.0,48.0,46.0,98,97,95,29.96,29.89,6,1,8,0.01
2014-4-12,54.4,50.5,47.5,51.0,48.3,46.0,95,92,84,29.95,29.89,7,2,10,0.00
2014-4-13,56.2,50.7,48.7,52.0,48.9,47.0,96,93,86,30.08,29.94,6,1,10,0.00
2014-4-14,58.7,50.7,46.1,54.0,49.0,45.0,97,94,81,30.14,30.02,8,1,11,0.01
2014-4-15,65.6,54.1,46.0,54.0,48.8,45.0,97,83,60,30.07,29.92,8,2,10,0.00
2014-4-16,71.1,56.8,48.1,54.0,48.5,44.0,88,75,54,29.96,29.84,7,1,9,0.00
2014-4-17,69.2,56.2,48.3,55.0,49.2,45.0,92,78,49,29.92,29.82,7,1,10,0.00
2014-4-18,64.0,53.0,47.0,54.0,47.6,43.0,93,82,56,29.94,29.89,7,2,9,0.00
2014-4-19,63.5,51.9,41.3,56.0,47.8,39.0,93,86,75,30.16,29.94,8,2,12,0.00
2014-4-20,67.6,54.4,45.6,52.0,47.2,39.0,93,77,53,30.17,30.08,6,2,9,0.00
2014-4-21,58.7,51.7,47.7,51.0,46.2,31.0,96,82,40,30.10,29.99,8,2,13,0.06
2014-4-22,57.1,50.6,44.9,48.0,45.1,42.0,95,82,67,30.18,30.01,11,2,12,0.00
2014-4-23,60.3,51.3,41.7,52.0,46.5,39.0,93,84,71,30.18,30.12,9,2,14,0.00
2014-4-24,57.1,53.3,49.9,55.0,51.9,48.0,98,95,89,30.13,29.95,6,1,9,0.08
2014-4-25,53.9,49.8,44.7,53.0,48.5,43.0,98,95,81,29.98,29.82,5,0,7,0.10
2014-4-26,55.9,49.3,42.3,48.0,44.2,40.0,95,83,64,30.08,29.89,8,2,14,0.00
2014-4-27,59.4,52.5,47.4,54.0,49.5,45.0,97,89,77,30.16,30.00,7,2,10,0.11
2014-4-28,66.5,53.7,42.9,52.0,44.6,34.0,94,74,44,30.25,30.16,7,2,9,0.00
2014-4-29,72.3,61.3,47.2,57.0,48.1,34.0,82,63,44,30.23,30.06,5,1,8,0.00
2014-4-30,79.2,69.3,60.7,53.0,47.2,37.0,69,46,34,30.07,30.01,6,2,8,0.00
2014-5-1,79.1,61.9,50.8,57.0,50.3,45.0,93,68,35,30.13,30.01,7,2,10,0.00
2014-5-2,62.5,54.1,48.7,56.0,50.7,46.0,95,88,79,30.12,30.03,6,2,9,0.00
2014-5-3,61.6,54.8,48.3,55.0,50.9,47.0,96,86,73,30.06,30.02,8,2,13,0.00
2014-5-4,60.0,54.9,49.1,56.0,51.8,47.0,93,89,81,30.08,30.03,7,2,11,0.00
2014-5-5,62.7,53.8,46.1,54.0,48.1,44.0,95,82,55,30.06,29.99,7,2,12,0.00
2014-5-6,68.0,55.6,48.0,52.0,46.6,42.0,87,73,55,30.01,29.92,8,1,13,0.00
2014-5-7,65.9,54.1,46.0,51.0,45.9,42.0,87,74,59,30.04,29.91,8,2,13,0.00
2014-5-8,56.3,52.6,48.8,55.0,50.4,46.0,97,92,81,30.09,30.00,5,1,9,0.12
2014-5-9,61.7,55.0,49.5,56.0,51.0,46.0,98,87,62,30.20,30.09,9,1,12,0.01
2014-5-10,63.2,54.7,47.9,51.0,46.7,44.0,88,75,55,30.19,30.10,8,1,11,0.00
2014-5-11,70.3,56.5,48.2,53.0,47.8,44.0,86,74,47,30.17,30.06,7,2,9,0.00
2014-5-12,70.4,57.4,47.4,59.0,49.7,44.0,89,76,59,30.15,30.05,5,1,11,0.00
2014-5-13,76.3,63.2,50.6,54.0,46.8,40.0,80,58,31,30.14,30.07,11,2,13,0.00
2014-5-14,75.1,63.5,52.9,57.0,49.2,45.0,76,61,36,30.14,30.08,6,2,13,0.00
2014-5-15,62.6,56.2,50.2,55.0,49.7,43.0,88,79,69,30.14,30.06,7,2,12,0.00
2014-5-16,70.4,58.4,49.9,56.0,50.6,45.0,90,76,56,30.11,30.00,7,2,10,0.00
2014-5-17,66.5,57.4,50.3,56.0,51.7,48.0,93,82,64,30.02,29.96,7,2,11,0.00
2014-5-18,64.7,57.8,51.7,56.0,51.2,48.0,90,79,61,30.01,29.97,7,2,11,0.00
2014-5-19,60.4,55.2,49.9,55.0,50.7,47.0,90,85,77,29.99,29.93,8,2,13,0.00
2014-5-20,63.3,54.8,47.8,56.0,50.7,46.0,94,86,75,30.01,29.95,7,2,10,0.00
2014-5-21,63.4,55.0,50.0,55.0,50.9,48.0,94,86,72,29.98,29.90,7,2,10,0.00
2014-5-22,52.9,50.3,47.8,51.0,49.0,47.0,97,95,92,30.03,29.92,6,2,8,0.01
2014-5-23,69.0,55.4,48.9,58.0,51.3,48.0,97,87,67,30.04,29.96,7,2,10,0.00
2014-5-24,71.3,57.9,51.3,57.0,51.5,48.0,94,80,59,30.02,29.94,7,2,9,0.00
2014-5-25,71.3,59.9,51.8,54.0,49.2,46.0,85,69,48,30.01,29.96,6,2,8,0.00
2014-5-26,70.4,60.1,50.7,58.0,51.8,47.0,87,74,58,30.05,30.00,5,1,9,0.00
2014-5-27,68.3,57.3,47.9,51.0,47.4,43.0,90,71,51,30.09,30.02,5,1,9,0.00
2014-5-28,68.9,58.3,50.3,51.0,45.2,40.0,75,63,44,30.12,30.00,7,2,10,0.00
2014-5-29,67.6,57.1,49.1,52.0,48.1,45.0,88,73,56,30.00,29.89,8,1,8,0.00
2014-5-30,60.3,51.8,44.9,52.0,47.8,43.0,94,86,73,29.95,29.89,8,2,10,0.00
2014-5-31,56.4,50.0,45.5,52.0,47.9,44.0,96,92,83,30.01,29.91,6,2,7,0.00
2014-6-1,56.3,50.0,45.5,52.0,48.1,44.0,96,93,84,29.94,29.81,7,2,8,0.01
2014-6-2,53.7,49.9,46.8,51.0,48.3,45.0,97,94,88,29.92,29.80,7,2,10,0.01
2014-6-3,49.0,48.8,48.4,48.0,47.9,47.0,96,96,96,29.91,29.90,1,0,5,0.00
2014-12-12,54.6,48.5,44.2,52.0,46.5,42.0,93,93,91,30.10,29.90,5,1,8,0.77
2014-12-13,58.3,46.7,39.9,52.0,44.4,38.0,94,91,75,30.24,30.10,9,3,11,0.01
2014-12-14,55.7,50.3,45.8,48.0,46.3,44.0,93,86,75,30.16,29.92,20,4,23,0.01
2014-12-15,51.5,50.0,48.5,49.0,47.8,46.0,93,92,86,29.92,29.80,11,4,23,0.13
2014-12-16,55.3,50.5,48.5,53.0,48.6,47.0,94,93,89,29.91,29.78,19,3,25,1.16
2014-12-17,54.0,50.1,48.7,52.0,48.3,47.0,95,93,84,30.05,29.91,11,2,15,0.44
2014-12-18,59.2,53.3,49.5,55.0,50.9,48.0,94,92,86,30.18,30.04,10,2,13,0.09
2014-12-19,57.5,54.4,51.9,56.0,53.0,51.0,95,95,94,30.16,30.05,15,2,19,0.38
2014-12-20,56.2,54.4,51.8,55.0,53.1,51.0,96,95,95,30.24,30.13,6,1,11,0.88
2014-12-21,59.5,57.6,55.2,58.0,56.7,54.0,96,96,96,30.33,30.23,4,0,6,0.18
2014-12-22,68.4,57.7,53.7,65.0,55.7,52.0,96,93,79,30.33,30.22,3,0,6,0.02
2014-12-23,65.2,54.9,47.9,60.0,52.5,47.0,95,92,79,30.24,30.13,5,1,10,0.01
2014-12-24,55.1,49.4,43.2,54.0,46.6,39.0,95,90,75,30.18,30.00,9,1,17,0.04
2014-12-25,111.9,49.1,-22.6,99.9,43.4,-72.0,100,84,5,30.20,30.12,3,0,11,0.00
2014-12-26,114.0,52.1,25.6,99.9,46.8,26.0,100,87,54,30.27,30.16,8,2,11,0.00
2014-12-27,107.5,41.2,-23.3,99.9,37.1,-72.0,100,87,5,30.39,30.27,8,4,13,0.00
2014-12-28,114.4,61.0,40.0,99.9,57.0,39.0,100,95,87,30.38,30.23,6,2,10,0.00
2014-12-29,112.2,56.9,12.1,99.9,52.4,-46.0,100,90,5,30.25,30.12,4,0,9,0.00
2014-12-30,109.7,60.1,11.1,99.9,51.5,-22.0,100,78,5,30.34,30.14,5,1,22,0.00
2014-12-31,113.1,57.8,14.7,99.9,48.4,15.0,100,77,40,30.33,30.06,6,1,12,0.00
2015-1-1,105.4,53.8,23.1,99.9,50.3,23.0,100,90,72,30.17,30.06,8,4,10,0.00
2015-1-2,104.6,57.7,11.7,99.9,55.3,-47.0,100,94,5,30.20,30.11,7,3,10,0.00